sensor_id;sensor_type;location;lat;lon;timestamp;temperature;humidity
8563;DHT22;16392;52.508;13.468;2023-06-14T00:00:50;14.00;1.00
8563;DHT22;16392;52.508;13.468;2023-06-14T00:03:18;14.00;1.00
8563;DHT22;16392;52.508;13.468;2023-06-14T00:05:47;13.90;1.00
8563;DHT22;16392;52.508;13.468;2023-06-14T00:08:14;13.90;99.90
8563;DHT22;16392;52.508;13.468;2023-06-14T00:10:40;13.80;1.00
8563;DHT22;16392;52.508;13.468;2023-06-14T00:13:07;13.80;1.00
8563;DHT22;16392;52.508;13.468;2023-06-14T00:15:35;13.80;1.00
8563;DHT22;16392;52.508;13.468;2023-06-14T00:18:02;13.80;1.00
8563;DHT22;16392;52.508;13.468;2023-06-14T00:20:28;13.80;1.00
8563;DHT22;16392;52.508;13.468;2023-06-14T00:22:55;13.80;52.80
8563;DHT22;16392;52.508;13.468;2023-06-14T00:25:23;13.80;99.90
8563;DHT22;16392;52.508;13.468;2023-06-14T00:27:50;13.80;99.90
8563;DHT22;16392;52.508;13.468;2023-06-14T00:30:17;13.80;99.90
8563;DHT22;16392;52.508;13.468;2023-06-14T00:32:45;13.80;99.90
8563;DHT22;16392;52.508;13.468;2023-06-14T00:35:12;13.80;99.90
8563;DHT22;16392;52.508;13.468;2023-06-14T00:37:38;13.80;99.90
8563;DHT22;16392;52.508;13.468;2023-06-14T00:40:05;13.80;99.90
8563;DHT22;16392;52.508;13.468;2023-06-14T00:42:32;13.80;99.90
8563;DHT22;16392;52.508;13.468;2023-06-14T00:44:59;13.70;99.90
8563;DHT22;16392;52.508;13.468;2023-06-14T00:47:26;13.70;99.90
8563;DHT22;16392;52.508;13.468;2023-06-14T00:49:54;13.70;99.90
8563;DHT22;16392;52.508;13.468;2023-06-14T00:52:22;13.60;99.90
8563;DHT22;16392;52.508;13.468;2023-06-14T00:54:49;13.60;99.90
8563;DHT22;16392;52.508;13.468;2023-06-14T00:57:16;13.60;99.90
8563;DHT22;16392;52.508;13.468;2023-06-14T00:59:43;13.50;99.90
8563;DHT22;16392;52.508;13.468;2023-06-14T01:02:10;13.50;99.90
8563;DHT22;16392;52.508;13.468;2023-06-14T01:04:37;13.50;99.90
8563;DHT22;16392;52.508;13.468;2023-06-14T01:07:09;13.40;99.90
8563;DHT22;16392;52.508;13.468;2023-06-14T01:09:43;13.40;99.90
8563;DHT22;16392;52.508;13.468;2023-06-14T01:12:13;13.40;99.90
8563;DHT22;16392;52.508;13.468;2023-06-14T01:14:41;13.40;99.90
8563;DHT22;16392;52.508;13.468;2023-06-14T01:17:08;13.30;99.90
8563;DHT22;16392;52.508;13.468;2023-06-14T01:19:40;13.30;99.90
8563;DHT22;16392;52.508;13.468;2023-06-14T01:22:09;13.30;99.90
8563;DHT22;16392;52.508;13.468;2023-06-14T01:24:37;13.30;99.90
8563;DHT22;16392;52.508;13.468;2023-06-14T01:27:04;13.20;99.90
8563;DHT22;16392;52.508;13.468;2023-06-14T01:29:32;13.20;99.90
8563;DHT22;16392;52.508;13.468;2023-06-14T01:32:01;13.10;99.90
8563;DHT22;16392;52.508;13.468;2023-06-14T01:34:28;13.10;99.90
8563;DHT22;16392;52.508;13.468;2023-06-14T01:36:54;13.10;99.90
8563;DHT22;16392;52.508;13.468;2023-06-14T01:39:21;13.10;99.90
8563;DHT22;16392;52.508;13.468;2023-06-14T01:41:50;13.20;99.90
8563;DHT22;16392;52.508;13.468;2023-06-14T01:44:17;13.20;99.90
8563;DHT22;16392;52.508;13.468;2023-06-14T01:46:45;13.20;99.90
8563;DHT22;16392;52.508;13.468;2023-06-14T01:49:11;13.20;99.90
8563;DHT22;16392;52.508;13.468;2023-06-14T01:51:38;13.20;99.90
8563;DHT22;16392;52.508;13.468;2023-06-14T01:54:04;13.20;99.90
8563;DHT22;16392;52.508;13.468;2023-06-14T01:56:32;13.20;99.90
8563;DHT22;16392;52.508;13.468;2023-06-14T01:59:00;13.20;99.90
8563;DHT22;16392;52.508;13.468;2023-06-14T02:01:26;13.20;99.90
8563;DHT22;16392;52.508;13.468;2023-06-14T02:03:53;13.20;99.90
8563;DHT22;16392;52.508;13.468;2023-06-14T02:06:19;13.20;99.90
8563;DHT22;16392;52.508;13.468;2023-06-14T02:08:46;13.20;99.90
8563;DHT22;16392;52.508;13.468;2023-06-14T02:11:12;13.20;99.90
8563;DHT22;16392;52.508;13.468;2023-06-14T02:13:39;13.20;99.90
8563;DHT22;16392;52.508;13.468;2023-06-14T02:16:07;13.20;99.90
8563;DHT22;16392;52.508;13.468;2023-06-14T02:18:33;13.20;99.90
8563;DHT22;16392;52.508;13.468;2023-06-14T02:21:00;13.20;99.90
8563;DHT22;16392;52.508;13.468;2023-06-14T02:23:26;13.20;99.90
8563;DHT22;16392;52.508;13.468;2023-06-14T02:25:53;13.20;99.90
8563;DHT22;16392;52.508;13.468;2023-06-14T02:28:19;13.20;99.90
8563;DHT22;16392;52.508;13.468;2023-06-14T02:30:46;13.20;99.90
8563;DHT22;16392;52.508;13.468;2023-06-14T02:33:15;13.20;99.90
8563;DHT22;16392;52.508;13.468;2023-06-14T02:35:42;13.20;99.90
8563;DHT22;16392;52.508;13.468;2023-06-14T02:38:09;13.10;99.90
8563;DHT22;16392;52.508;13.468;2023-06-14T02:40:37;13.00;99.90
8563;DHT22;16392;52.508;13.468;2023-06-14T02:43:04;13.00;99.90
8563;DHT22;16392;52.508;13.468;2023-06-14T02:45:31;13.00;99.90
8563;DHT22;16392;52.508;13.468;2023-06-14T02:47:57;12.90;99.90
8563;DHT22;16392;52.508;13.468;2023-06-14T02:50:25;12.80;99.90
8563;DHT22;16392;52.508;13.468;2023-06-14T02:52:53;12.80;99.90
8563;DHT22;16392;52.508;13.468;2023-06-14T02:55:21;12.90;99.90
8563;DHT22;16392;52.508;13.468;2023-06-14T02:57:48;13.00;99.90
8563;DHT22;16392;52.508;13.468;2023-06-14T03:00:15;12.90;99.90
8563;DHT22;16392;52.508;13.468;2023-06-14T03:02:42;12.90;99.90
8563;DHT22;16392;52.508;13.468;2023-06-14T03:05:09;12.90;99.90
8563;DHT22;16392;52.508;13.468;2023-06-14T03:07:37;12.90;99.90
8563;DHT22;16392;52.508;13.468;2023-06-14T03:10:07;12.90;99.90
8563;DHT22;16392;52.508;13.468;2023-06-14T03:12:34;13.00;99.90
8563;DHT22;16392;52.508;13.468;2023-06-14T03:15:01;13.00;99.90
8563;DHT22;16392;52.508;13.468;2023-06-14T03:17:27;13.00;99.90
8563;DHT22;16392;52.508;13.468;2023-06-14T03:19:55;13.00;99.90
8563;DHT22;16392;52.508;13.468;2023-06-14T03:22:21;13.00;99.90
8563;DHT22;16392;52.508;13.468;2023-06-14T03:24:49;13.00;99.90
8563;DHT22;16392;52.508;13.468;2023-06-14T03:27:17;13.00;99.90
8563;DHT22;16392;52.508;13.468;2023-06-14T03:29:43;13.30;99.90
8563;DHT22;16392;52.508;13.468;2023-06-14T03:32:10;13.60;99.90
8563;DHT22;16392;52.508;13.468;2023-06-14T03:34:36;13.80;99.90
8563;DHT22;16392;52.508;13.468;2023-06-14T03:37:04;13.80;99.90
8563;DHT22;16392;52.508;13.468;2023-06-14T03:39:31;13.70;99.90
8563;DHT22;16392;52.508;13.468;2023-06-14T03:41:59;13.50;99.90
8563;DHT22;16392;52.508;13.468;2023-06-14T03:44:26;13.40;99.90
8563;DHT22;16392;52.508;13.468;2023-06-14T03:46:52;13.40;99.90
8563;DHT22;16392;52.508;13.468;2023-06-14T03:49:19;13.30;99.90
8563;DHT22;16392;52.508;13.468;2023-06-14T03:51:46;13.30;99.90
8563;DHT22;16392;52.508;13.468;2023-06-14T03:54:16;13.40;99.90
8563;DHT22;16392;52.508;13.468;2023-06-14T03:56:42;13.70;99.90
8563;DHT22;16392;52.508;13.468;2023-06-14T03:59:10;14.30;99.90
8563;DHT22;16392;52.508;13.468;2023-06-14T04:01:37;14.90;99.90
8563;DHT22;16392;52.508;13.468;2023-06-14T04:04:11;15.50;99.90
8563;DHT22;16392;52.508;13.468;2023-06-14T04:06:37;15.90;99.90
8563;DHT22;16392;52.508;13.468;2023-06-14T04:09:05;16.30;17.90
8563;DHT22;16392;52.508;13.468;2023-06-14T04:11:32;16.40;1.00
8563;DHT22;16392;52.508;13.468;2023-06-14T04:13:58;16.40;1.00
8563;DHT22;16392;52.508;13.468;2023-06-14T04:16:26;16.40;1.00
8563;DHT22;16392;52.508;13.468;2023-06-14T04:18:53;16.60;1.00
8563;DHT22;16392;52.508;13.468;2023-06-14T04:21:20;16.80;1.00
8563;DHT22;16392;52.508;13.468;2023-06-14T04:23:46;17.00;1.00
8563;DHT22;16392;52.508;13.468;2023-06-14T04:26:13;17.20;1.00
8563;DHT22;16392;52.508;13.468;2023-06-14T04:28:39;17.60;99.90
8563;DHT22;16392;52.508;13.468;2023-06-14T04:31:06;17.40;99.90
8563;DHT22;16392;52.508;13.468;2023-06-14T04:33:35;17.00;1.00
8563;DHT22;16392;52.508;13.468;2023-06-14T04:36:08;17.20;99.90
8563;DHT22;16392;52.508;13.468;2023-06-14T04:38:35;17.20;1.00
8563;DHT22;16392;52.508;13.468;2023-06-14T04:41:01;17.50;1.00
8563;DHT22;16392;52.508;13.468;2023-06-14T04:43:28;17.90;99.90
8563;DHT22;16392;52.508;13.468;2023-06-14T04:45:54;18.10;99.90
8563;DHT22;16392;52.508;13.468;2023-06-14T04:48:21;18.50;1.00
8563;DHT22;16392;52.508;13.468;2023-06-14T04:50:51;18.40;99.90
8563;DHT22;16392;52.508;13.468;2023-06-14T04:53:18;18.10;1.00
8563;DHT22;16392;52.508;13.468;2023-06-14T04:55:48;18.20;1.00
8563;DHT22;16392;52.508;13.468;2023-06-14T04:58:15;18.40;82.80
8563;DHT22;16392;52.508;13.468;2023-06-14T05:00:42;18.70;1.00
8563;DHT22;16392;52.508;13.468;2023-06-14T05:03:10;18.60;1.00
8563;DHT22;16392;52.508;13.468;2023-06-14T05:05:39;18.30;1.00
8563;DHT22;16392;52.508;13.468;2023-06-14T05:08:06;18.20;99.90
8563;DHT22;16392;52.508;13.468;2023-06-14T05:10:33;17.70;1.00
8563;DHT22;16392;52.508;13.468;2023-06-14T05:13:01;17.10;99.90
8563;DHT22;16392;52.508;13.468;2023-06-14T05:15:28;16.70;1.00
8563;DHT22;16392;52.508;13.468;2023-06-14T05:17:54;16.50;1.00
8563;DHT22;16392;52.508;13.468;2023-06-14T05:20:21;16.50;99.90
8563;DHT22;16392;52.508;13.468;2023-06-14T05:22:50;16.30;99.90
8563;DHT22;16392;52.508;13.468;2023-06-14T05:25:19;16.30;1.00
8563;DHT22;16392;52.508;13.468;2023-06-14T05:27:46;16.40;1.00
8563;DHT22;16392;52.508;13.468;2023-06-14T05:30:13;16.40;7.10
8563;DHT22;16392;52.508;13.468;2023-06-14T05:32:40;16.50;1.00
8563;DHT22;16392;52.508;13.468;2023-06-14T05:35:06;16.30;1.00
8563;DHT22;16392;52.508;13.468;2023-06-14T05:37:33;16.40;1.00
8563;DHT22;16392;52.508;13.468;2023-06-14T05:40:00;16.50;1.00
8563;DHT22;16392;52.508;13.468;2023-06-14T05:42:28;16.40;99.90
8563;DHT22;16392;52.508;13.468;2023-06-14T05:44:54;16.40;1.00
8563;DHT22;16392;52.508;13.468;2023-06-14T05:47:21;16.30;1.00
8563;DHT22;16392;52.508;13.468;2023-06-14T05:49:47;16.20;99.90
8563;DHT22;16392;52.508;13.468;2023-06-14T05:52:15;16.20;99.90
8563;DHT22;16392;52.508;13.468;2023-06-14T05:54:41;16.10;1.00
8563;DHT22;16392;52.508;13.468;2023-06-14T05:57:08;16.10;1.00
8563;DHT22;16392;52.508;13.468;2023-06-14T05:59:37;16.00;1.00
8563;DHT22;16392;52.508;13.468;2023-06-14T06:02:03;16.00;1.00
8563;DHT22;16392;52.508;13.468;2023-06-14T06:04:30;16.00;44.80
8563;DHT22;16392;52.508;13.468;2023-06-14T06:06:57;15.90;99.90
8563;DHT22;16392;52.508;13.468;2023-06-14T06:09:23;15.80;99.90
8563;DHT22;16392;52.508;13.468;2023-06-14T06:11:50;15.70;99.90
8563;DHT22;16392;52.508;13.468;2023-06-14T06:14:16;15.70;1.00
8563;DHT22;16392;52.508;13.468;2023-06-14T06:16:44;15.60;1.00
8563;DHT22;16392;52.508;13.468;2023-06-14T06:19:11;15.50;1.00
8563;DHT22;16392;52.508;13.468;2023-06-14T06:21:38;15.60;1.00
8563;DHT22;16392;52.508;13.468;2023-06-14T06:24:05;15.70;1.00
8563;DHT22;16392;52.508;13.468;2023-06-14T06:26:32;15.60;1.00
8563;DHT22;16392;52.508;13.468;2023-06-14T06:28:58;15.70;1.00
8563;DHT22;16392;52.508;13.468;2023-06-14T06:31:25;15.80;1.00
8563;DHT22;16392;52.508;13.468;2023-06-14T06:33:54;15.90;1.00
8563;DHT22;16392;52.508;13.468;2023-06-14T06:36:20;15.70;1.00
8563;DHT22;16392;52.508;13.468;2023-06-14T06:38:47;15.60;1.00
8563;DHT22;16392;52.508;13.468;2023-06-14T06:41:14;15.70;1.00
8563;DHT22;16392;52.508;13.468;2023-06-14T06:43:40;15.80;1.00
8563;DHT22;16392;52.508;13.468;2023-06-14T06:46:07;15.90;1.00
8563;DHT22;16392;52.508;13.468;2023-06-14T06:48:33;16.10;1.00
8563;DHT22;16392;52.508;13.468;2023-06-14T06:51:01;16.30;1.00
8563;DHT22;16392;52.508;13.468;2023-06-14T06:53:28;16.40;1.00
8563;DHT22;16392;52.508;13.468;2023-06-14T06:55:54;16.40;99.90
8563;DHT22;16392;52.508;13.468;2023-06-14T06:58:21;16.40;99.90
8563;DHT22;16392;52.508;13.468;2023-06-14T07:00:48;16.70;99.90
8563;DHT22;16392;52.508;13.468;2023-06-14T07:03:14;16.90;1.00
8563;DHT22;16392;52.508;13.468;2023-06-14T07:05:41;17.00;99.90
8563;DHT22;16392;52.508;13.468;2023-06-14T07:08:08;16.80;99.90
8563;DHT22;16392;52.508;13.468;2023-06-14T07:10:38;16.80;99.90
8563;DHT22;16392;52.508;13.468;2023-06-14T07:13:04;17.00;1.00
8563;DHT22;16392;52.508;13.468;2023-06-14T07:15:31;16.90;86.00
8563;DHT22;16392;52.508;13.468;2023-06-14T07:17:58;17.10;99.90
8563;DHT22;16392;52.508;13.468;2023-06-14T07:20:25;17.30;1.00
8563;DHT22;16392;52.508;13.468;2023-06-14T07:22:51;17.30;1.00
8563;DHT22;16392;52.508;13.468;2023-06-14T07:25:19;17.20;30.00
8563;DHT22;16392;52.508;13.468;2023-06-14T07:27:47;17.80;99.90
8563;DHT22;16392;52.508;13.468;2023-06-14T07:30:14;18.50;1.00
8563;DHT22;16392;52.508;13.468;2023-06-14T07:32:40;19.30;99.90
8563;DHT22;16392;52.508;13.468;2023-06-14T07:35:07;19.40;1.00
8563;DHT22;16392;52.508;13.468;2023-06-14T07:37:34;19.20;1.00
8563;DHT22;16392;52.508;13.468;2023-06-14T07:40:01;19.20;1.00
8563;DHT22;16392;52.508;13.468;2023-06-14T07:42:34;19.10;1.00
8563;DHT22;16392;52.508;13.468;2023-06-14T07:45:01;19.20;1.00
8563;DHT22;16392;52.508;13.468;2023-06-14T07:47:27;19.20;1.00
8563;DHT22;16392;52.508;13.468;2023-06-14T07:49:54;19.00;1.00
8563;DHT22;16392;52.508;13.468;2023-06-14T07:52:21;19.00;49.80
8563;DHT22;16392;52.508;13.468;2023-06-14T07:54:48;19.50;1.00
8563;DHT22;16392;52.508;13.468;2023-06-14T07:57:14;20.20;1.00
8563;DHT22;16392;52.508;13.468;2023-06-14T07:59:42;20.30;1.00
8563;DHT22;16392;52.508;13.468;2023-06-14T08:02:09;20.30;1.00
8563;DHT22;16392;52.508;13.468;2023-06-14T08:04:35;20.10;1.00
8563;DHT22;16392;52.508;13.468;2023-06-14T08:07:02;20.30;1.00
8563;DHT22;16392;52.508;13.468;2023-06-14T08:09:29;19.90;1.00
8563;DHT22;16392;52.508;13.468;2023-06-14T08:11:56;19.90;1.00
8563;DHT22;16392;52.508;13.468;2023-06-14T08:14:22;19.40;1.00
8563;DHT22;16392;52.508;13.468;2023-06-14T08:16:50;19.60;1.00
8563;DHT22;16392;52.508;13.468;2023-06-14T08:19:16;19.60;1.00
8563;DHT22;16392;52.508;13.468;2023-06-14T08:21:43;19.80;1.00
8563;DHT22;16392;52.508;13.468;2023-06-14T08:24:11;20.00;1.00
8563;DHT22;16392;52.508;13.468;2023-06-14T08:26:38;20.00;1.00
8563;DHT22;16392;52.508;13.468;2023-06-14T08:29:05;19.90;1.00
8563;DHT22;16392;52.508;13.468;2023-06-14T08:31:32;20.40;99.90
8563;DHT22;16392;52.508;13.468;2023-06-14T08:34:00;20.60;99.90
8563;DHT22;16392;52.508;13.468;2023-06-14T08:36:27;20.30;99.90
8563;DHT22;16392;52.508;13.468;2023-06-14T08:38:53;20.00;99.90
8563;DHT22;16392;52.508;13.468;2023-06-14T08:41:21;20.10;99.90
8563;DHT22;16392;52.508;13.468;2023-06-14T08:43:49;19.90;99.90
8563;DHT22;16392;52.508;13.468;2023-06-14T08:46:17;20.00;99.90
8563;DHT22;16392;52.508;13.468;2023-06-14T08:48:45;20.10;99.90
8563;DHT22;16392;52.508;13.468;2023-06-14T08:51:14;20.10;98.20
8563;DHT22;16392;52.508;13.468;2023-06-14T08:53:42;19.90;99.90
8563;DHT22;16392;52.508;13.468;2023-06-14T08:56:09;20.00;99.90
8563;DHT22;16392;52.508;13.468;2023-06-14T08:58:39;20.00;99.90
8563;DHT22;16392;52.508;13.468;2023-06-14T09:01:09;20.00;99.90
8563;DHT22;16392;52.508;13.468;2023-06-14T09:03:37;20.30;99.90
8563;DHT22;16392;52.508;13.468;2023-06-14T09:06:07;20.70;99.90
8563;DHT22;16392;52.508;13.468;2023-06-14T09:08:41;21.10;1.00
8563;DHT22;16392;52.508;13.468;2023-06-14T09:11:08;20.90;1.00
8563;DHT22;16392;52.508;13.468;2023-06-14T09:13:34;20.80;1.00
8563;DHT22;16392;52.508;13.468;2023-06-14T09:16:01;21.00;1.00
8563;DHT22;16392;52.508;13.468;2023-06-14T09:18:33;20.80;1.00
8563;DHT22;16392;52.508;13.468;2023-06-14T09:21:00;20.70;1.00
8563;DHT22;16392;52.508;13.468;2023-06-14T09:23:26;20.70;1.00
8563;DHT22;16392;52.508;13.468;2023-06-14T09:25:54;20.60;1.00
8563;DHT22;16392;52.508;13.468;2023-06-14T09:28:25;20.50;1.00
8563;DHT22;16392;52.508;13.468;2023-06-14T09:30:52;20.50;1.00
8563;DHT22;16392;52.508;13.468;2023-06-14T09:33:20;20.50;1.00
8563;DHT22;16392;52.508;13.468;2023-06-14T09:35:50;20.40;1.00
8563;DHT22;16392;52.508;13.468;2023-06-14T09:38:16;20.70;1.00
8563;DHT22;16392;52.508;13.468;2023-06-14T09:40:43;21.00;1.00
8563;DHT22;16392;52.508;13.468;2023-06-14T09:43:11;21.10;1.00
8563;DHT22;16392;52.508;13.468;2023-06-14T09:45:38;21.00;1.00
8563;DHT22;16392;52.508;13.468;2023-06-14T09:48:06;21.60;1.00
8563;DHT22;16392;52.508;13.468;2023-06-14T09:50:32;21.50;1.00
8563;DHT22;16392;52.508;13.468;2023-06-14T09:53:01;21.50;1.00
8563;DHT22;16392;52.508;13.468;2023-06-14T09:55:29;21.10;1.00
8563;DHT22;16392;52.508;13.468;2023-06-14T09:57:57;21.20;1.00
8563;DHT22;16392;52.508;13.468;2023-06-14T10:00:25;21.30;1.00
8563;DHT22;16392;52.508;13.468;2023-06-14T10:02:54;20.90;1.00
8563;DHT22;16392;52.508;13.468;2023-06-14T10:05:21;21.00;1.00
8563;DHT22;16392;52.508;13.468;2023-06-14T10:07:49;21.20;1.00
8563;DHT22;16392;52.508;13.468;2023-06-14T10:10:18;21.00;1.00
8563;DHT22;16392;52.508;13.468;2023-06-14T10:12:45;20.90;1.00
8563;DHT22;16392;52.508;13.468;2023-06-14T10:15:13;20.90;1.00
8563;DHT22;16392;52.508;13.468;2023-06-14T10:17:44;21.00;1.00
8563;DHT22;16392;52.508;13.468;2023-06-14T10:20:16;20.80;1.00
8563;DHT22;16392;52.508;13.468;2023-06-14T10:22:46;20.70;1.00
8563;DHT22;16392;52.508;13.468;2023-06-14T10:25:25;20.70;1.00
8563;DHT22;16392;52.508;13.468;2023-06-14T10:27:53;21.00;1.00
8563;DHT22;16392;52.508;13.468;2023-06-14T10:30:29;20.90;1.00
8563;DHT22;16392;52.508;13.468;2023-06-14T10:33:07;20.80;1.00
8563;DHT22;16392;52.508;13.468;2023-06-14T10:35:35;20.90;1.00
8563;DHT22;16392;52.508;13.468;2023-06-14T10:38:08;20.70;1.00
8563;DHT22;16392;52.508;13.468;2023-06-14T10:40:35;20.50;1.00
8563;DHT22;16392;52.508;13.468;2023-06-14T10:48:30;20.50;1.00
8563;DHT22;16392;52.508;13.468;2023-06-14T10:50:59;20.70;1.00
8563;DHT22;16392;52.508;13.468;2023-06-14T10:53:26;20.40;1.00
8563;DHT22;16392;52.508;13.468;2023-06-14T10:55:52;20.90;1.00
8563;DHT22;16392;52.508;13.468;2023-06-14T10:58:19;21.80;1.00
8563;DHT22;16392;52.508;13.468;2023-06-14T11:00:46;22.00;1.00
8563;DHT22;16392;52.508;13.468;2023-06-14T11:06:02;22.10;1.00
8563;DHT22;16392;52.508;13.468;2023-06-14T11:08:58;21.90;99.90
8563;DHT22;16392;52.508;13.468;2023-06-14T11:11:30;21.80;99.90
8563;DHT22;16392;52.508;13.468;2023-06-14T11:13:58;21.80;99.90
8563;DHT22;16392;52.508;13.468;2023-06-14T11:16:26;21.60;99.90
8563;DHT22;16392;52.508;13.468;2023-06-14T11:18:53;21.70;99.90
8563;DHT22;16392;52.508;13.468;2023-06-14T11:21:21;22.10;99.90
8563;DHT22;16392;52.508;13.468;2023-06-14T11:23:50;22.00;99.90
8563;DHT22;16392;52.508;13.468;2023-06-14T11:26:24;22.10;99.90
8563;DHT22;16392;52.508;13.468;2023-06-14T11:28:54;22.50;99.90
8563;DHT22;16392;52.508;13.468;2023-06-14T11:31:21;22.50;99.90
8563;DHT22;16392;52.508;13.468;2023-06-14T11:33:49;22.70;99.90
8563;DHT22;16392;52.508;13.468;2023-06-14T11:36:17;22.60;99.90
8563;DHT22;16392;52.508;13.468;2023-06-14T11:38:44;22.30;99.90
8563;DHT22;16392;52.508;13.468;2023-06-14T11:41:11;22.20;99.90
8563;DHT22;16392;52.508;13.468;2023-06-14T11:43:39;22.00;99.90
8563;DHT22;16392;52.508;13.468;2023-06-14T11:46:11;22.00;99.90
8563;DHT22;16392;52.508;13.468;2023-06-14T11:48:40;22.40;99.90
8563;DHT22;16392;52.508;13.468;2023-06-14T11:51:07;22.30;99.90
8563;DHT22;16392;52.508;13.468;2023-06-14T11:53:34;22.40;99.90
8563;DHT22;16392;52.508;13.468;2023-06-14T11:56:02;22.60;99.90
8563;DHT22;16392;52.508;13.468;2023-06-14T11:58:29;22.50;99.90
8563;DHT22;16392;52.508;13.468;2023-06-14T12:00:56;22.40;99.90
8563;DHT22;16392;52.508;13.468;2023-06-14T12:03:23;22.50;99.90
8563;DHT22;16392;52.508;13.468;2023-06-14T12:05:50;23.00;99.90
8563;DHT22;16392;52.508;13.468;2023-06-14T12:08:16;23.20;99.90
8563;DHT22;16392;52.508;13.468;2023-06-14T12:10:43;23.70;99.90
8563;DHT22;16392;52.508;13.468;2023-06-14T12:13:11;24.00;99.90
8563;DHT22;16392;52.508;13.468;2023-06-14T12:15:38;23.70;84.10
8563;DHT22;16392;52.508;13.468;2023-06-14T12:18:05;23.80;72.80
8563;DHT22;16392;52.508;13.468;2023-06-14T12:20:33;24.60;77.20
8563;DHT22;16392;52.508;13.468;2023-06-14T12:23:02;25.50;20.80
8563;DHT22;16392;52.508;13.468;2023-06-14T12:25:30;25.50;1.00
8563;DHT22;16392;52.508;13.468;2023-06-14T12:27:57;25.40;1.00
8563;DHT22;16392;52.508;13.468;2023-06-14T12:30:25;25.60;1.00
8563;DHT22;16392;52.508;13.468;2023-06-14T12:32:52;25.30;1.00
8563;DHT22;16392;52.508;13.468;2023-06-14T12:35:19;25.00;1.00
8563;DHT22;16392;52.508;13.468;2023-06-14T12:37:45;24.50;1.00
8563;DHT22;16392;52.508;13.468;2023-06-14T12:40:13;24.40;1.00
8563;DHT22;16392;52.508;13.468;2023-06-14T12:42:44;24.60;1.00
8563;DHT22;16392;52.508;13.468;2023-06-14T12:45:12;25.40;1.00
8563;DHT22;16392;52.508;13.468;2023-06-14T12:47:40;26.00;1.00
8563;DHT22;16392;52.508;13.468;2023-06-14T12:50:07;25.80;1.00
8563;DHT22;16392;52.508;13.468;2023-06-14T12:52:34;25.70;1.00
8563;DHT22;16392;52.508;13.468;2023-06-14T12:55:01;26.10;1.00
8563;DHT22;16392;52.508;13.468;2023-06-14T12:57:28;26.20;1.00
8563;DHT22;16392;52.508;13.468;2023-06-14T12:59:54;25.50;1.00
8563;DHT22;16392;52.508;13.468;2023-06-14T13:02:21;25.00;1.00
8563;DHT22;16392;52.508;13.468;2023-06-14T13:04:51;25.00;1.00
8563;DHT22;16392;52.508;13.468;2023-06-14T13:07:17;26.10;1.00
8563;DHT22;16392;52.508;13.468;2023-06-14T13:09:44;25.70;1.00
8563;DHT22;16392;52.508;13.468;2023-06-14T13:12:10;25.80;1.00
8563;DHT22;16392;52.508;13.468;2023-06-14T13:14:37;26.60;1.00
8563;DHT22;16392;52.508;13.468;2023-06-14T13:17:04;26.80;1.00
8563;DHT22;16392;52.508;13.468;2023-06-14T13:19:31;26.50;1.00
8563;DHT22;16392;52.508;13.468;2023-06-14T13:21:59;26.20;1.00
8563;DHT22;16392;52.508;13.468;2023-06-14T13:24:25;25.90;1.00
8563;DHT22;16392;52.508;13.468;2023-06-14T13:26:52;25.70;1.00
8563;DHT22;16392;52.508;13.468;2023-06-14T13:29:19;25.50;1.00
8563;DHT22;16392;52.508;13.468;2023-06-14T13:31:47;25.10;1.00
8563;DHT22;16392;52.508;13.468;2023-06-14T13:34:13;25.00;1.00
8563;DHT22;16392;52.508;13.468;2023-06-14T13:36:39;25.10;1.00
8563;DHT22;16392;52.508;13.468;2023-06-14T13:39:07;25.40;1.00
8563;DHT22;16392;52.508;13.468;2023-06-14T13:41:34;25.70;1.00
8563;DHT22;16392;52.508;13.468;2023-06-14T13:44:00;24.80;99.90
8563;DHT22;16392;52.508;13.468;2023-06-14T13:46:29;24.60;1.00
8563;DHT22;16392;52.508;13.468;2023-06-14T13:48:56;25.10;99.90
8563;DHT22;16392;52.508;13.468;2023-06-14T13:51:22;25.70;1.00
8563;DHT22;16392;52.508;13.468;2023-06-14T13:53:49;25.90;99.90
8563;DHT22;16392;52.508;13.468;2023-06-14T13:56:17;25.80;1.00
8563;DHT22;16392;52.508;13.468;2023-06-14T13:58:44;25.80;1.00
8563;DHT22;16392;52.508;13.468;2023-06-14T14:01:11;25.90;1.00
8563;DHT22;16392;52.508;13.468;2023-06-14T14:03:37;25.60;99.90
8563;DHT22;16392;52.508;13.468;2023-06-14T14:06:04;25.80;1.00
8563;DHT22;16392;52.508;13.468;2023-06-14T14:08:31;25.50;1.00
8563;DHT22;16392;52.508;13.468;2023-06-14T14:10:58;25.20;99.90
8563;DHT22;16392;52.508;13.468;2023-06-14T14:13:26;24.70;99.90
8563;DHT22;16392;52.508;13.468;2023-06-14T14:15:52;24.60;99.90
8563;DHT22;16392;52.508;13.468;2023-06-14T14:18:19;24.40;99.90
8563;DHT22;16392;52.508;13.468;2023-06-14T14:20:46;24.20;99.90
8563;DHT22;16392;52.508;13.468;2023-06-14T14:23:13;24.40;99.90
8563;DHT22;16392;52.508;13.468;2023-06-14T14:25:39;25.00;99.90
8563;DHT22;16392;52.508;13.468;2023-06-14T14:28:06;25.00;99.90
8563;DHT22;16392;52.508;13.468;2023-06-14T14:30:33;24.90;1.00
8563;DHT22;16392;52.508;13.468;2023-06-14T14:33:03;24.70;99.90
8563;DHT22;16392;52.508;13.468;2023-06-14T14:35:29;24.60;99.90
8563;DHT22;16392;52.508;13.468;2023-06-14T14:37:56;24.60;99.90
8563;DHT22;16392;52.508;13.468;2023-06-14T14:40:23;24.50;99.90
8563;DHT22;16392;52.508;13.468;2023-06-14T14:42:50;24.50;99.90
8563;DHT22;16392;52.508;13.468;2023-06-14T14:45:16;24.70;99.90
8563;DHT22;16392;52.508;13.468;2023-06-14T14:47:48;24.60;99.90
8563;DHT22;16392;52.508;13.468;2023-06-14T14:50:17;24.70;99.90
8563;DHT22;16392;52.508;13.468;2023-06-14T14:52:43;24.30;99.90
8563;DHT22;16392;52.508;13.468;2023-06-14T14:55:11;24.30;99.90
8563;DHT22;16392;52.508;13.468;2023-06-14T14:57:37;24.10;99.90
8563;DHT22;16392;52.508;13.468;2023-06-14T15:00:05;24.10;99.90
8563;DHT22;16392;52.508;13.468;2023-06-14T15:02:40;24.00;99.90
8563;DHT22;16392;52.508;13.468;2023-06-14T15:05:13;23.80;99.90
8563;DHT22;16392;52.508;13.468;2023-06-14T15:07:40;23.60;99.90
8563;DHT22;16392;52.508;13.468;2023-06-14T15:10:19;23.50;99.90
8563;DHT22;16392;52.508;13.468;2023-06-14T15:12:47;23.00;99.90
8563;DHT22;16392;52.508;13.468;2023-06-14T15:15:15;22.90;99.90
8563;DHT22;16392;52.508;13.468;2023-06-14T15:17:42;22.80;99.90
8563;DHT22;16392;52.508;13.468;2023-06-14T15:23:01;22.70;99.90
8563;DHT22;16392;52.508;13.468;2023-06-14T15:25:28;22.80;99.90
8563;DHT22;16392;52.508;13.468;2023-06-14T15:28:01;22.80;99.90
8563;DHT22;16392;52.508;13.468;2023-06-14T15:30:34;22.80;99.90
8563;DHT22;16392;52.508;13.468;2023-06-14T15:33:01;23.00;99.90
8563;DHT22;16392;52.508;13.468;2023-06-14T15:35:29;23.00;99.90
8563;DHT22;16392;52.508;13.468;2023-06-14T15:37:56;23.00;99.90
8563;DHT22;16392;52.508;13.468;2023-06-14T15:40:28;22.90;99.90
8563;DHT22;16392;52.508;13.468;2023-06-14T15:42:56;23.00;99.90
8563;DHT22;16392;52.508;13.468;2023-06-14T15:45:24;23.00;99.90
8563;DHT22;16392;52.508;13.468;2023-06-14T15:47:52;23.00;99.90
8563;DHT22;16392;52.508;13.468;2023-06-14T15:50:23;22.90;99.90